Time;durP1;ratioP1;P1;durP2;ratioP2;P2;SDS_P1;SDS_P2;PMS_P1;PMS_P2;Temp;Humidity;BMP_temperature;BMP_pressure;BME280_temperature;BME280_humidity;BME280_pressure;Samples;Min_cycle;Max_cycle;Signal;HPM_P1;HPM_P2
2022/03/09 00:01:00;;;;;;;;;75.00;57.40;;;;;;;;5019943;28;8964;-65
2022/03/09 00:03:27;;;;;;;;;68.60;55.20;;;;;;;;5019795;28;8743;-65
2022/03/09 00:05:54;;;;;;;;;76.60;57.20;;;;;;;;5019924;28;8833;-65
2022/03/09 00:08:20;;;;;;;;;73.80;56.60;;;;;;;;5017472;28;8806;-65
2022/03/09 00:10:47;;;;;;;;;67.80;50.80;;;;;;;;5018925;28;8787;-65
2022/03/09 00:13:14;;;;;;;;;69.60;54.60;;;;;;;;5019382;28;8818;-65
2022/03/09 00:15:41;;;;;;;;;77.60;58.00;;;;;;;;5018654;28;8775;-65
2022/03/09 00:18:07;;;;;;;;;70.00;54.60;;;;;;;;5018983;28;8751;-65
2022/03/09 00:20:34;;;;;;;;;73.40;56.60;;;;;;;;5018806;28;8803;-65
2022/03/09 00:23:01;;;;;;;;;68.60;51.20;;;;;;;;5018447;28;8762;-65
2022/03/09 00:25:27;;;;;;;;;69.25;51.75;;;;;;;;5017940;28;8732;-65
2022/03/09 00:27:54;;;;;;;;;65.25;49.50;;;;;;;;5019073;28;8770;-65
2022/03/09 00:30:21;;;;;;;;;66.75;51.50;;;;;;;;5017757;28;8799;-65
2022/03/09 00:32:47;;;;;;;;;54.20;42.20;;;;;;;;5033830;28;8854;-64
2022/03/09 00:35:14;;;;;;;;;67.50;52.75;;;;;;;;5018729;28;8798;-65
2022/03/09 00:37:41;;;;;;;;;66.00;51.25;;;;;;;;5016136;28;8755;-65
2022/03/09 00:40:08;;;;;;;;;63.00;49.50;;;;;;;;5018093;28;8774;-65
2022/03/09 00:42:35;;;;;;;;;65.80;49.80;;;;;;;;5016634;28;8778;-65
2022/03/09 00:45:02;;;;;;;;;63.75;51.50;;;;;;;;5015942;28;8754;-65
2022/03/09 00:47:29;;;;;;;;;64.75;50.00;;;;;;;;5017173;28;8755;-65
2022/03/09 00:49:55;;;;;;;;;60.50;47.75;;;;;;;;5016273;28;8790;-66
2022/03/09 00:52:24;;;;;;;;;61.00;50.00;;;;;;;;5032277;28;8786;-66
2022/03/09 00:54:51;;;;;;;;;60.25;47.75;;;;;;;;5017674;28;8762;-69
2022/03/09 00:57:18;;;;;;;;;58.25;47.00;;;;;;;;5014302;28;8766;-75
2022/03/09 00:59:44;;;;;;;;;57.25;46.25;;;;;;;;5030494;28;8801;-73
2022/03/09 01:02:11;;;;;;;;;63.50;51.25;;;;;;;;5024422;28;8765;-77
2022/03/09 01:04:38;;;;;;;;;55.50;46.25;;;;;;;;5032597;28;8780;-71
2022/03/09 01:07:04;;;;;;;;;59.50;47.75;;;;;;;;5033673;28;8825;-76
2022/03/09 01:09:31;;;;;;;;;56.00;44.50;;;;;;;;5017188;28;8779;-73
2022/03/09 01:11:58;;;;;;;;;55.50;45.75;;;;;;;;5017541;28;8807;-64
2022/03/09 01:14:25;;;;;;;;;56.50;44.75;;;;;;;;5016878;28;8811;-64
2022/03/09 01:16:52;;;;;;;;;58.50;46.00;;;;;;;;5032536;28;8763;-61
2022/03/09 01:19:18;;;;;;;;;54.25;42.25;;;;;;;;5017500;28;8798;-63
2022/03/09 01:21:45;;;;;;;;;52.00;40.75;;;;;;;;5016582;28;8778;-62
2022/03/09 01:24:12;;;;;;;;;60.75;48.50;;;;;;;;5032228;28;8783;-62
2022/03/09 01:26:38;;;;;;;;;57.00;45.75;;;;;;;;5014897;28;8778;-64
2022/03/09 01:29:07;;;;;;;;;56.50;43.50;;;;;;;;5015521;28;9485;-72
2022/03/09 01:31:34;;;;;;;;;55.00;45.00;;;;;;;;5016290;28;8813;-66
2022/03/09 01:34:00;;;;;;;;;52.25;43.00;;;;;;;;5031419;28;8765;-69
2022/03/09 01:36:27;;;;;;;;;53.50;41.75;;;;;;;;5015857;28;8775;-71
2022/03/09 01:38:54;;;;;;;;;51.25;41.75;;;;;;;;5017155;28;8838;-67
2022/03/09 01:41:20;;;;;;;;;54.00;42.00;;;;;;;;5011674;28;8805;-65
2022/03/09 01:44:04;;;;;;;;;37.75;34.00;;;;;;;;5016062;28;8872;-67
2022/03/09 01:46:31;;;;;;;;;47.25;39.25;;;;;;;;5015234;28;8749;-70
2022/03/09 01:48:58;;;;;;;;;51.25;39.75;;;;;;;;5016761;28;8759;-72
2022/03/09 01:51:25;;;;;;;;;47.00;38.75;;;;;;;;5031626;28;8933;-66
2022/03/09 01:53:52;;;;;;;;;49.00;39.25;;;;;;;;5015808;28;8759;-62
2022/03/09 01:56:19;;;;;;;;;48.00;39.50;;;;;;;;5013740;28;9459;-63
2022/03/09 01:58:45;;;;;;;;;50.50;40.00;;;;;;;;5015015;28;8790;-69
2022/03/09 02:01:12;;;;;;;;;46.25;36.00;;;;;;;;5031541;28;8763;-68
2022/03/09 02:03:39;;;;;;;;;49.75;38.50;;;;;;;;5014847;28;8766;-70
2022/03/09 02:06:05;;;;;;;;;48.00;40.00;;;;;;;;5031621;28;8811;-68
2022/03/09 02:11:18;;;;;;;;;56.75;44.75;;;;;;;;5016505;28;8763;-66
2022/03/09 02:13:45;;;;;;;;;51.75;42.00;;;;;;;;5016797;28;8823;-65
2022/03/09 02:16:14;;;;;;;;;49.00;38.75;;;;;;;;5032292;28;8755;-64
2022/03/09 02:18:40;;;;;;;;;40.00;35.00;;;;;;;;5016031;28;8743;-68
2022/03/09 02:21:07;;;;;;;;;48.00;39.00;;;;;;;;5013994;28;8872;-69
2022/03/09 02:23:34;;;;;;;;;49.25;40.25;;;;;;;;5016192;28;8782;-68
2022/03/09 02:26:04;;;;;;;;;46.00;39.25;;;;;;;;5015087;28;8814;-67
2022/03/09 02:28:30;;;;;;;;;43.00;37.50;;;;;;;;5014113;28;8900;-66
2022/03/09 02:30:57;;;;;;;;;47.50;39.00;;;;;;;;5032037;28;9543;-67
2022/03/09 02:33:27;;;;;;;;;48.50;38.75;;;;;;;;5014057;28;8767;-67
2022/03/09 02:35:56;;;;;;;;;45.25;38.50;;;;;;;;5030538;28;8893;-67
2022/03/09 02:38:23;;;;;;;;;49.25;40.25;;;;;;;;5015445;28;8787;-67
2022/03/09 02:40:49;;;;;;;;;43.75;36.75;27.10;99.90;;;;;;5013126;28;8790;-61
2022/03/09 02:43:16;;;;;;;;;42.00;35.25;26.90;99.90;;;;;;5014236;28;8844;-61
2022/03/09 02:45:43;;;;;;;;;43.50;34.50;27.00;99.90;;;;;;4994744;28;8781;-61
2022/03/09 02:48:09;;;;;;;;;42.75;35.25;27.00;99.90;;;;;;4994810;28;8772;-62
2022/03/09 02:50:36;;;;;;;;;48.75;37.25;27.10;99.90;;;;;;4962336;28;8849;-63
2022/03/09 02:53:03;;;;;;;;;45.75;35.75;27.20;99.90;;;;;;4996139;28;9434;-64
2022/03/09 02:55:29;;;;;;;;;46.00;36.00;27.50;99.90;;;;;;4995993;28;8839;-65
2022/03/09 02:57:56;;;;;;;;;27.75;25.25;27.70;99.90;;;;;;4994730;28;8901;-65
2022/03/09 03:00:22;;;;;;;;;51.00;39.50;27.60;99.90;;;;;;5015646;28;8747;-64
2022/03/09 03:02:49;;;;;;;;;40.00;35.25;27.50;99.90;;;;;;5016258;28;8837;-64
2022/03/09 03:05:16;;;;;;;;;40.00;33.50;27.40;99.90;;;;;;5030917;28;8802;-63
2022/03/09 03:07:42;;;;;;;;;39.25;32.00;27.70;99.90;;;;;;5031051;28;8766;-63
2022/03/09 03:10:09;;;;;;;;;46.50;35.50;27.80;99.90;;;;;;5015115;28;8736;-62
2022/03/09 03:12:36;;;;;;;;;46.25;36.25;27.80;99.90;;;;;;5018836;28;8786;-62
2022/03/09 03:15:04;;;;;;;;;43.25;35.50;28.10;99.90;;;;;;5033916;28;8743;-62
2022/03/09 03:17:30;;;;;;;;;45.50;38.25;28.50;99.90;;;;;;5016698;28;9384;-64
2022/03/09 03:19:57;;;;;;;;;42.75;35.75;28.30;99.90;;;;;;5034182;28;8771;-62
2022/03/09 03:22:24;;;;;;;;;45.75;36.75;28.60;99.90;;;;;;5035021;28;8759;-63
2022/03/09 03:24:50;;;;;;;;;46.00;36.25;28.70;99.90;;;;;;5019594;28;8743;-63
2022/03/09 03:27:17;;;;;;;;;41.75;35.00;28.80;99.90;;;;;;5018802;28;8735;-62
2022/03/09 03:29:44;;;;;;;;;36.50;32.50;28.70;99.90;;;;;;5017943;28;8767;-62
2022/03/09 03:32:11;;;;;;;;;43.50;36.00;28.70;99.90;;;;;;5018561;28;8759;-62
2022/03/09 03:34:37;;;;;;;;;32.25;30.00;28.70;99.90;;;;;;5018088;28;8885;-62
2022/03/09 03:37:04;;;;;;;;;38.25;33.50;28.70;99.90;;;;;;5018226;28;8901;-62
2022/03/09 03:39:31;;;;;;;;;36.50;33.00;28.80;99.90;;;;;;5009128;28;8852;-61
2022/03/09 03:41:57;;;;;;;;;40.25;33.00;28.70;99.90;;;;;;5026907;28;8815;-61
2022/03/09 03:44:24;;;;;;;;;25.75;24.25;29.30;99.90;;;;;;4998580;28;8877;-62
2022/03/09 03:46:51;;;;;;;;;34.75;30.25;29.40;99.90;;;;;;4996934;28;8785;-62
2022/03/09 03:49:17;;;;;;;;;35.75;32.00;29.30;99.90;;;;;;4998207;28;8765;-62
2022/03/09 03:51:44;;;;;;;;;36.75;30.75;29.70;99.90;;;;;;4998880;28;8790;-62
2022/03/09 03:54:11;;;;;;;;;33.75;29.25;30.10;99.90;;;;;;4999245;28;8862;-62
2022/03/09 03:56:37;;;;;;;;;33.00;29.25;29.80;99.90;;;;;;5002906;28;8802;-62
2022/03/09 03:59:04;;;;;;;;;37.00;30.75;30.10;99.90;;;;;;5033781;28;8782;-62
2022/03/09 04:01:30;;;;;;;;;35.75;30.50;29.70;99.90;;;;;;4998672;28;8767;-61
2022/03/09 04:03:57;;;;;;;;;35.00;32.00;29.80;99.90;;;;;;4998015;28;8716;-63
2022/03/09 04:06:23;;;;;;;;;33.25;31.75;29.80;99.90;;;;;;4997421;28;8795;-62
2022/03/09 04:08:53;;;;;;;;;36.25;32.00;29.90;99.90;;;;;;4998364;28;8881;-61
2022/03/09 04:11:20;;;;;;;;;37.00;31.00;29.90;99.90;;;;;;5013337;28;8771;-61
2022/03/09 04:13:46;;;;;;;;;33.75;31.50;30.00;99.90;;;;;;4998916;28;8893;-62
2022/03/09 04:16:13;;;;;;;;;31.00;30.25;30.10;99.90;;;;;;5014360;28;8861;-63
2022/03/09 04:18:40;;;;;;;;;32.25;29.75;30.40;99.90;;;;;;5015660;28;8775;-64
2022/03/09 04:21:06;;;;;;;;;30.25;28.00;30.70;99.90;;;;;;4999457;28;8769;-62
2022/03/09 04:23:33;;;;;;;;;34.50;30.50;30.70;99.90;;;;;;5013392;28;8801;-62
2022/03/09 04:26:00;;;;;;;;;31.75;30.75;30.70;99.90;;;;;;4999828;28;8779;-62
2022/03/09 04:28:27;;;;;;;;;34.00;31.75;30.20;99.90;;;;;;4998711;28;8752;-61
2022/03/09 04:30:54;;;;;;;;;34.25;31.25;30.10;99.90;;;;;;5012744;28;8767;-61
2022/03/09 04:33:21;;;;;;;;;34.75;29.75;30.00;99.90;;;;;;4994900;28;8783;-64
2022/03/09 04:35:47;;;;;;;;;37.75;32.00;30.40;99.90;;;;;;4997265;28;8755;-63
2022/03/09 04:38:14;;;;;;;;;25.75;25.50;30.60;99.90;;;;;;4997832;28;8838;-61
2022/03/09 04:40:40;;;;;;;;;36.75;30.00;30.70;99.90;;;;;;4997812;28;8760;-62
2022/03/09 04:43:07;;;;;;;;;36.25;31.75;30.80;99.90;;;;;;4998041;28;8731;-63
2022/03/09 04:45:34;;;;;;;;;34.50;25.50;30.80;99.90;;;;;;4997546;28;8739;-63
2022/03/09 04:48:00;;;;;;;;;35.00;29.75;30.90;99.90;;;;;;4997868;28;8747;-64
2022/03/09 04:50:27;;;;;;;;;32.00;29.50;30.90;99.90;;;;;;4997331;28;9727;-64
2022/03/09 04:52:54;;;;;;;;;36.50;31.50;31.00;99.90;;;;;;4995791;28;8845;-66
2022/03/09 04:55:20;;;;;;;;;32.25;28.75;31.10;99.90;;;;;;5012927;28;8775;-64
2022/03/09 04:57:47;;;;;;;;;38.00;31.50;31.30;99.90;;;;;;4997723;28;8754;-69
2022/03/09 05:00:14;;;;;;;;;33.50;29.50;31.20;99.90;;;;;;5005882;28;8751;-63
2022/03/09 05:02:41;;;;;;;;;38.00;30.75;31.30;99.90;;;;;;5017614;28;8833;-63
2022/03/09 05:05:08;;;;;;;;;33.00;31.00;31.60;99.90;;;;;;5014302;28;8746;-62
2022/03/09 05:07:34;;;;;;;;;32.33;31.33;31.60;99.90;;;;;;5016864;28;8925;-62
2022/03/09 05:10:01;;;;;;;;;33.25;30.00;31.00;99.90;;;;;;5017927;28;8735;-62
2022/03/09 05:12:28;;;;;;;;;33.50;32.00;30.60;99.90;;;;;;5015017;28;8767;-62
2022/03/09 05:14:54;;;;;;;;;36.00;32.00;31.20;99.90;;;;;;5016712;28;9173;-63
2022/03/09 05:17:21;;;;;;;;;37.00;34.00;31.70;99.90;;;;;;5031274;28;8775;-62
2022/03/09 05:19:48;;;;;;;;;35.00;31.25;31.90;99.50;;;;;;5032105;28;8781;-61
2022/03/09 05:22:14;;;;;;;;;36.25;32.50;31.50;99.90;;;;;;5017016;28;8786;-61
2022/03/09 05:24:41;;;;;;;;;32.75;31.75;31.50;99.70;;;;;;5017810;28;8779;-61
2022/03/09 05:27:07;;;;;;;;;38.75;33.00;31.20;99.90;;;;;;5017433;28;8755;-61
2022/03/09 05:29:34;;;;;;;;;34.50;31.00;31.10;99.90;;;;;;5016915;28;9458;-61
2022/03/09 05:32:01;;;;;;;;;33.25;31.75;31.20;99.90;;;;;;5017348;28;8779;-61
2022/03/09 05:34:28;;;;;;;;;30.25;29.25;31.20;99.90;;;;;;5016482;28;8762;-60
2022/03/09 05:36:54;;;;;;;;;32.00;31.00;31.00;99.90;;;;;;5017498;28;8877;-61
2022/03/09 05:39:21;;;;;;;;;38.25;32.00;31.00;99.90;;;;;;5016416;28;8791;-62
2022/03/09 05:41:47;;;;;;;;;34.25;30.75;30.90;99.90;;;;;;5015531;28;8751;-61
2022/03/09 05:44:15;;;;;;;;;34.50;31.75;31.00;99.90;;;;;;5015417;28;8771;-61
2022/03/09 05:46:41;;;;;;;;;33.00;29.75;31.10;99.90;;;;;;5031967;28;8762;-61
2022/03/09 05:49:08;;;;;;;;;30.00;28.00;31.20;99.90;;;;;;5015748;28;8748;-62
2022/03/09 05:51:35;;;;;;;;;34.00;31.50;31.20;99.70;;;;;;5016786;28;8754;-62
2022/03/09 05:54:01;;;;;;;;;36.25;31.50;31.30;99.80;;;;;;5017016;28;8976;-62
2022/03/09 05:56:28;;;;;;;;;28.00;28.00;31.10;99.10;;;;;;5016767;28;8784;-62
2022/03/09 05:58:55;;;;;;;;;35.75;30.50;31.20;99.60;;;;;;5015512;28;8767;-61
2022/03/09 06:01:23;;;;;;;;;33.00;31.50;31.20;99.90;;;;;;5015877;28;8828;-62
2022/03/09 06:03:50;;;;;;;;;33.50;32.00;31.30;99.60;;;;;;5015053;28;8751;-62
2022/03/09 06:06:17;;;;;;;;;31.00;28.50;31.20;99.70;;;;;;5031556;28;8747;-62
2022/03/09 06:08:43;;;;;;;;;32.75;31.50;31.30;99.80;;;;;;5031397;28;8800;-62
2022/03/09 06:11:10;;;;;;;;;21.75;19.50;31.30;99.70;;;;;;5015655;28;8771;-62
2022/03/09 06:13:37;;;;;;;;;30.00;30.00;31.40;99.90;;;;;;5017139;28;8767;-61
2022/03/09 06:16:04;;;;;;;;;31.25;29.00;31.60;99.60;;;;;;5018432;28;8751;-62
2022/03/09 06:18:30;;;;;;;;;31.75;29.00;31.60;98.90;;;;;;5032382;28;8747;-61
2022/03/09 06:20:57;;;;;;;;;33.25;32.00;31.60;98.60;;;;;;5032296;28;8761;-62
2022/03/09 06:23:23;;;;;;;;;36.50;32.00;31.70;99.20;;;;;;5016295;28;8782;-61
2022/03/09 06:25:50;;;;;;;;;36.25;33.75;31.70;99.20;;;;;;5016954;28;8771;-62
2022/03/09 06:28:17;;;;;;;;;32.75;29.75;31.70;99.40;;;;;;5016633;28;9407;-62
2022/03/09 06:30:43;;;;;;;;;35.00;31.75;31.90;98.20;;;;;;5031406;28;8781;-61
2022/03/09 06:33:10;;;;;;;;;41.50;35.50;31.70;98.80;;;;;;5016748;28;8800;-62
2022/03/09 06:35:37;;;;;;;;;38.25;32.25;31.70;99.90;;;;;;5031583;28;8759;-62
2022/03/09 06:38:03;;;;;;;;;33.25;31.50;31.80;99.30;;;;;;5015638;28;8787;-62
2022/03/09 06:40:30;;;;;;;;;38.75;33.25;31.90;98.80;;;;;;5018359;28;8739;-61
2022/03/09 06:42:59;;;;;;;;;33.75;31.75;31.90;98.90;;;;;;5018509;28;8731;-62
2022/03/09 06:45:26;;;;;;;;;35.50;32.00;31.80;99.00;;;;;;5019189;28;8751;-61
2022/03/09 06:47:53;;;;;;;;;41.50;34.00;31.80;98.20;;;;;;5023021;28;8727;-61
2022/03/09 06:50:20;;;;;;;;;36.25;32.50;31.90;98.30;;;;;;5036675;28;8833;-61
2022/03/09 06:52:46;;;;;;;;;28.00;26.25;32.00;98.10;;;;;;5038119;28;8767;-62
2022/03/09 06:55:13;;;;;;;;;38.00;34.50;32.00;99.10;;;;;;5022741;28;8719;-61
2022/03/09 06:57:40;;;;;;;;;41.75;37.00;31.90;98.10;;;;;;5022146;28;8806;-62
2022/03/09 07:00:10;;;;;;;;;37.75;33.50;31.60;97.50;;;;;;5018570;28;8793;-61
2022/03/09 07:02:37;;;;;;;;;29.75;29.50;31.70;98.00;;;;;;5017069;28;8791;-62
2022/03/09 07:05:04;;;;;;;;;40.75;34.25;31.70;97.70;;;;;;5015946;28;8901;-61
2022/03/09 07:07:32;;;;;;;;;34.25;31.75;31.80;98.10;;;;;;5032640;28;8821;-61
2022/03/09 07:09:59;;;;;;;;;42.75;34.75;31.90;98.30;;;;;;5033515;28;8787;-61
2022/03/09 07:12:25;;;;;;;;;41.75;34.00;32.00;98.30;;;;;;5017178;28;8771;-61
2022/03/09 07:14:52;;;;;;;;;41.25;36.00;32.10;97.40;;;;;;5018050;28;8782;-61
2022/03/09 07:17:19;;;;;;;;;36.00;32.50;32.10;97.20;;;;;;5017783;28;8782;-61
2022/03/09 07:19:45;;;;;;;;;41.00;34.25;32.20;97.40;;;;;;5016697;28;8839;-62
2022/03/09 07:22:12;;;;;;;;;35.50;33.00;32.30;96.80;;;;;;5033048;28;8755;-61
2022/03/09 07:24:39;;;;;;;;;42.00;36.25;32.20;97.00;;;;;;5017529;28;8852;-61
2022/03/09 07:27:05;;;;;;;;;42.25;36.50;32.30;97.70;;;;;;5017192;28;8794;-61
2022/03/09 07:29:32;;;;;;;;;41.75;35.00;32.30;96.30;;;;;;5016943;28;8782;-61
2022/03/09 07:31:59;;;;;;;;;47.75;39.00;32.30;96.40;;;;;;5016908;28;9017;-62
2022/03/09 07:34:26;;;;;;;;;43.50;36.25;32.30;96.30;;;;;;5016694;28;8759;-61
2022/03/09 07:36:58;;;;;;;;;43.50;36.75;32.30;96.50;;;;;;5017867;28;8731;-61
2022/03/09 07:39:26;;;;;;;;;43.25;38.00;32.30;96.50;;;;;;5016823;28;9480;-62
2022/03/09 07:41:54;;;;;;;;;42.75;37.00;32.30;95.20;;;;;;5015576;28;8798;-61
2022/03/09 07:44:21;;;;;;;;;46.75;40.50;32.40;94.70;;;;;;5031801;28;8786;-62
2022/03/09 07:46:48;;;;;;;;;45.75;38.75;32.40;95.20;;;;;;5015536;28;8783;-61
2022/03/09 07:49:15;;;;;;;;;43.50;36.50;32.40;95.20;;;;;;5016991;28;8744;-62
2022/03/09 07:51:42;;;;;;;;;41.75;35.25;32.40;94.90;;;;;;5016687;28;8775;-62
2022/03/09 07:54:09;;;;;;;;;34.25;32.75;32.40;94.90;;;;;;5016707;28;9715;-62
2022/03/09 07:56:36;;;;;;;;;39.50;35.50;32.40;95.70;;;;;;5031612;28;8801;-61
2022/03/09 07:59:06;;;;;;;;;42.75;36.25;32.50;95.60;;;;;;5014462;28;8782;-62
2022/03/09 08:01:32;;;;;;;;;38.25;34.25;32.60;95.00;;;;;;5015654;28;8755;-61
2022/03/09 08:03:59;;;;;;;;;48.00;39.75;32.60;94.10;;;;;;5015550;28;8747;-62
2022/03/09 08:06:25;;;;;;;;;46.50;37.50;32.50;94.70;;;;;;5014438;28;8872;-62
2022/03/09 08:08:52;;;;;;;;;38.00;33.50;32.60;94.00;;;;;;5014629;28;8894;-62
2022/03/09 08:11:19;;;;;;;;;49.50;39.00;32.60;94.10;;;;;;5015929;28;8778;-61
2022/03/09 08:13:45;;;;;;;;;43.00;37.50;32.60;93.90;;;;;;5015102;28;9314;-61
2022/03/09 08:16:12;;;;;;;;;43.25;36.00;32.70;93.70;;;;;;5014927;28;8739;-62
2022/03/09 08:18:39;;;;;;;;;43.75;38.50;32.60;93.60;;;;;;5015972;28;8758;-62
2022/03/09 08:21:05;;;;;;;;;49.75;42.00;32.60;93.40;;;;;;5016056;28;8789;-62
2022/03/09 08:23:32;;;;;;;;;47.75;39.00;32.70;93.60;;;;;;5014051;28;8793;-62
2022/03/09 08:25:58;;;;;;;;;46.00;39.00;32.80;93.50;;;;;;5031175;28;8766;-62
2022/03/09 08:28:25;;;;;;;;;48.25;40.50;32.70;93.10;;;;;;5013223;28;8743;-61
2022/03/09 08:30:55;;;;;;;;;46.00;40.00;32.60;92.90;;;;;;5016195;28;8767;-62
2022/03/09 08:33:21;;;;;;;;;48.25;39.75;32.60;93.40;;;;;;5029544;28;8829;-63
2022/03/09 08:35:48;;;;;;;;;44.00;38.00;32.70;92.90;;;;;;5015211;28;8755;-63
2022/03/09 08:38:16;;;;;;;;;48.00;40.00;32.50;92.80;;;;;;5015750;28;9038;-63
2022/03/09 08:40:42;;;;;;;;;45.75;39.75;32.60;93.50;;;;;;5030917;28;8746;-62
2022/03/09 08:43:09;;;;;;;;;49.00;42.00;32.60;92.90;;;;;;5031065;28;8735;-63
2022/03/09 08:45:36;;;;;;;;;44.50;38.00;32.60;92.90;;;;;;5014140;28;8889;-63
2022/03/09 08:48:02;;;;;;;;;45.25;38.00;32.70;93.90;;;;;;5015235;28;8754;-63
2022/03/09 08:50:29;;;;;;;;;46.50;39.75;32.60;93.30;;;;;;5029990;28;8849;-62
2022/03/09 08:52:56;;;;;;;;;47.50;39.75;32.60;92.90;;;;;;5015766;28;8803;-62
2022/03/09 08:55:23;;;;;;;;;44.75;38.75;32.60;93.60;;;;;;5015702;28;9320;-62
2022/03/09 08:57:49;;;;;;;;;46.25;39.25;32.70;93.70;;;;;;5013524;28;10026;-62
2022/03/09 09:00:16;;;;;;;;;50.75;43.00;32.70;93.70;;;;;;5015120;28;8787;-62
2022/03/09 09:02:43;;;;;;;;;42.25;35.00;32.70;93.00;;;;;;5015326;28;8805;-62
2022/03/09 09:05:10;;;;;;;;;46.00;39.00;32.70;92.70;;;;;;5030386;28;8826;-63
2022/03/09 09:07:37;;;;;;;;;46.50;39.75;32.60;92.80;;;;;;5013722;28;8852;-62
2022/03/09 09:10:06;;;;;;;;;45.50;39.25;32.60;93.50;;;;;;5029686;28;8775;-62
2022/03/09 09:12:33;;;;;;;;;47.50;38.50;32.70;93.70;;;;;;5013789;28;8797;-63
2022/03/09 09:14:59;;;;;;;;;53.25;42.50;32.60;93.10;;;;;;5015254;28;8795;-63
2022/03/09 09:17:26;;;;;;;;;48.00;41.25;32.60;92.60;;;;;;5014623;28;8782;-62
2022/03/09 09:19:53;;;;;;;;;51.25;43.25;32.60;93.40;;;;;;5029988;28;8869;-63
2022/03/09 09:22:19;;;;;;;;;52.75;44.00;32.70;93.30;;;;;;5015567;28;8770;-62
2022/03/09 09:24:46;;;;;;;;;50.00;42.75;32.70;92.50;;;;;;5014884;28;9411;-63
2022/03/09 09:27:12;;;;;;;;;46.75;39.00;32.60;93.80;;;;;;5013307;28;8809;-63
2022/03/09 09:29:39;;;;;;;;;48.25;41.25;32.60;92.90;;;;;;5014801;28;8829;-63
2022/03/09 09:32:06;;;;;;;;;52.50;43.50;32.60;93.50;;;;;;5014480;28;8830;-63
2022/03/09 09:34:33;;;;;;;;;54.50;45.00;32.70;93.20;;;;;;5029308;28;8751;-63
2022/03/09 09:37:02;;;;;;;;;53.00;44.25;32.70;92.70;;;;;;5015334;28;8825;-63
2022/03/09 09:39:28;;;;;;;;;50.75;41.75;32.60;92.50;;;;;;5014554;28;8735;-62
2022/03/09 09:41:56;;;;;;;;;47.50;39.75;32.60;93.30;;;;;;5014604;28;8759;-63
2022/03/09 09:44:24;;;;;;;;;46.00;39.00;32.50;92.90;;;;;;5014337;28;8783;-62
2022/03/09 09:46:50;;;;;;;;;50.25;42.50;32.50;93.00;;;;;;5013657;28;8759;-63
2022/03/09 09:49:23;;;;;;;;;44.00;37.00;32.50;93.30;;;;;;5032759;28;8743;-62
2022/03/09 09:51:50;;;;;;;;;49.75;42.75;32.40;93.10;;;;;;5017181;28;8750;-63
2022/03/09 09:54:17;;;;;;;;;49.00;41.25;32.50;92.60;;;;;;5015934;28;8767;-62
2022/03/09 09:56:43;;;;;;;;;51.00;43.50;32.50;93.80;;;;;;5032001;28;9281;-63
2022/03/09 09:59:10;;;;;;;;;53.75;41.75;32.40;92.90;;;;;;5015525;28;8771;-62
2022/03/09 10:01:37;;;;;;;;;48.25;41.25;32.50;94.30;;;;;;5031855;28;8763;-62
2022/03/09 10:04:04;;;;;;;;;52.00;43.75;32.40;93.70;;;;;;5016423;28;8817;-63
2022/03/09 10:06:31;;;;;;;;;47.25;40.50;32.40;94.40;;;;;;5016594;28;8758;-63
2022/03/09 10:09:05;;;;;;;;;48.75;41.75;32.40;93.70;;;;;;5015550;28;8743;-63
2022/03/09 10:11:45;;;;;;;;;53.75;43.00;32.40;93.30;;;;;;5015137;28;8783;-62
2022/03/09 10:14:12;;;;;;;;;52.00;43.25;32.40;93.80;;;;;;5031874;28;8778;-63
2022/03/09 10:16:39;;;;;;;;;51.50;43.50;32.30;94.20;;;;;;5031943;28;9155;-62
2022/03/09 10:19:06;;;;;;;;;51.50;42.00;32.20;93.50;;;;;;5032287;28;8771;-63
2022/03/09 10:21:41;;;;;;;;;50.50;42.75;32.20;95.40;;;;;;5008989;28;8765;-63
2022/03/09 10:24:09;;;;;;;;;49.50;41.50;32.10;94.40;;;;;;5020947;28;8771;-63
2022/03/09 10:26:35;;;;;;;;;53.00;43.50;32.10;94.50;;;;;;5020919;28;8837;-63
2022/03/09 10:29:06;;;;;;;;;51.00;43.25;32.00;94.80;;;;;;5020997;28;8762;-63
2022/03/09 10:31:37;;;;;;;;;49.00;41.50;32.00;94.20;;;;;;5035368;28;8770;-63
2022/03/09 10:34:23;;;;;;;;;51.75;43.75;32.00;94.30;;;;;;5020154;28;8751;-63
2022/03/09 10:36:56;;;;;;;;;54.25;44.75;31.90;94.90;;;;;;5020860;28;8858;-63
2022/03/09 10:39:24;;;;;;;;;54.75;44.50;31.90;95.10;;;;;;5020183;28;8771;-63
2022/03/09 10:41:51;;;;;;;;;52.75;42.50;31.80;95.60;;;;;;5020624;28;8882;-62
2022/03/09 10:44:17;;;;;;;;;55.75;46.00;31.70;95.10;;;;;;5020721;28;8763;-62
2022/03/09 10:46:48;;;;;;;;;47.50;40.50;31.70;94.90;;;;;;5020275;28;8751;-62
2022/03/09 10:49:19;;;;;;;;;53.00;44.25;31.60;95.40;;;;;;5021478;28;8747;-63
2022/03/09 10:51:49;;;;;;;;;55.00;44.50;31.60;95.30;;;;;;5034717;28;8758;-63
2022/03/09 10:54:27;;;;;;;;;54.50;44.75;31.60;95.70;;;;;;5035499;28;8758;-63
2022/03/09 10:57:06;;;;;;;;;48.50;41.50;31.50;96.60;;;;;;5018752;28;8767;-63
2022/03/09 10:59:53;;;;;;;;;51.25;43.50;31.50;96.10;;;;;;5035015;28;9452;-62
2022/03/09 11:02:21;;;;;;;;;48.75;42.25;31.50;96.70;;;;;;5018682;28;8897;-62
2022/03/09 11:05:12;;;;;;;;;51.75;43.25;31.30;97.60;;;;;;5034998;28;8763;-63
2022/03/09 11:07:39;;;;;;;;;52.50;44.50;31.20;98.60;;;;;;5019723;28;8932;-62
2022/03/09 11:10:06;;;;;;;;;54.75;44.25;31.20;98.60;;;;;;5020495;28;8739;-62
2022/03/09 11:12:33;;;;;;;;;54.50;45.00;31.20;99.00;;;;;;5018088;28;8791;-63
2022/03/09 11:15:00;;;;;;;;;52.25;43.00;31.10;98.40;;;;;;5019923;28;8763;-63
2022/03/09 11:17:26;;;;;;;;;59.50;49.25;31.20;98.60;;;;;;5001988;28;9330;-63
2022/03/09 11:19:53;;;;;;;;;55.75;46.25;31.10;97.90;;;;;;5019708;28;8743;-63
2022/03/09 11:22:20;;;;;;;;;52.25;43.50;31.00;98.70;;;;;;5035647;28;8735;-63
2022/03/09 11:24:48;;;;;;;;;50.00;42.75;30.90;98.90;;;;;;5019778;28;8758;-62
2022/03/09 11:27:15;;;;;;;;;58.75;47.75;30.80;99.60;;;;;;5018207;28;8772;-63
2022/03/09 11:29:42;;;;;;;;;54.00;45.25;30.70;99.60;;;;;;5034440;28;9567;-63
2022/03/09 11:32:10;;;;;;;;;59.50;47.50;30.70;99.30;;;;;;5018947;28;8783;-63
2022/03/09 11:34:45;;;;;;;;;60.00;48.00;30.60;99.50;;;;;;5033761;28;8846;-62
2022/03/09 11:37:33;;;;;;;;;59.25;48.00;30.60;99.90;;;;;;5034987;28;8842;-63
2022/03/09 11:40:08;;;;;;;;;61.00;48.25;30.50;99.80;;;;;;5019762;28;9416;-63
2022/03/09 11:42:36;;;;;;;;;57.00;48.00;30.50;99.90;;;;;;5019018;28;8759;-63
2022/03/09 11:45:14;;;;;;;;;61.20;49.00;30.50;99.90;;;;;;5019147;28;9934;-63
2022/03/09 11:48:01;;;;;;;;;58.00;48.50;30.30;99.90;;;;;;5019194;28;8865;-62
2022/03/09 11:50:31;;;;;;;;;54.40;45.40;30.30;99.90;;;;;;5019590;28;8861;-62
2022/03/09 11:53:05;;;;;;;;;55.60;45.40;30.30;99.90;;;;;;5020032;28;8789;-62
2022/03/09 11:55:33;;;;;;;;;60.75;49.25;30.30;99.90;;;;;;5018588;28;8747;-62
2022/03/09 11:58:07;;;;;;;;;59.80;48.40;30.30;99.90;;;;;;5035063;28;8763;-62
2022/03/09 12:00:35;;;;;;;;;59.40;48.00;30.20;99.90;;;;;;5019012;28;9361;-62
2022/03/09 12:03:02;;;;;;;;;63.80;49.60;30.20;99.90;;;;;;5018096;28;8797;-63
2022/03/09 12:05:31;;;;;;;;;62.40;49.40;30.10;99.90;;;;;;5018063;28;8803;-62
2022/03/09 12:08:02;;;;;;;;;63.75;50.75;30.00;99.90;;;;;;5019768;28;8787;-62
2022/03/09 12:10:40;;;;;;;;;59.80;49.00;30.00;99.90;;;;;;5018422;28;8763;-62
2022/03/09 12:13:14;;;;;;;;;65.20;52.80;30.00;99.90;;;;;;5019481;28;8751;-62
2022/03/09 12:15:59;;;;;;;;;75.60;62.00;30.00;99.90;;;;;;5017684;28;9502;-62
2022/03/09 12:18:45;;;;;;;;;99.00;86.00;29.90;99.90;;;;;;5018577;28;8799;-62
2022/03/09 12:21:14;;;;;;;;;102.80;88.00;29.80;99.90;;;;;;5018554;28;8791;-63
2022/03/09 12:24:05;;;;;;;;;99.60;82.00;29.80;99.90;;;;;;5033606;28;8759;-62
2022/03/09 12:26:47;;;;;;;;;86.60;74.80;29.80;99.90;;;;;;5018477;28;8779;-62
2022/03/09 12:29:26;;;;;;;;;71.20;58.40;29.70;99.90;;;;;;5033709;28;8739;-62
2022/03/09 12:32:07;;;;;;;;;64.20;50.80;29.60;99.90;;;;;;5018718;28;8785;-62
2022/03/09 12:34:53;;;;;;;;;73.20;60.60;29.60;99.90;;;;;;5017639;28;8751;-62
2022/03/09 12:37:22;;;;;;;;;67.40;52.60;29.60;99.90;;;;;;5017998;28;8763;-62
2022/03/09 12:40:08;;;;;;;;;64.80;52.20;29.60;99.90;;;;;;5016787;28;8747;-62
2022/03/09 12:42:35;;;;;;;;;61.80;50.80;29.60;99.90;;;;;;5018347;28;8751;-62
2022/03/09 12:45:02;;;;;;;;;63.00;51.40;29.70;99.90;;;;;;5018005;28;8778;-62
2022/03/09 12:47:34;;;;;;;;;60.00;47.60;29.70;99.90;;;;;;5032821;28;8763;-62
2022/03/09 12:50:01;;;;;;;;;61.00;49.20;29.70;99.90;;;;;;5032589;28;8751;-63
2022/03/09 12:52:44;;;;;;;;;71.60;54.20;29.70;99.90;;;;;;5032901;28;8770;-63
2022/03/09 12:55:11;;;;;;;;;69.00;54.20;29.60;99.90;;;;;;5033350;28;8770;-63
2022/03/09 12:57:37;;;;;;;;;69.60;56.00;29.50;99.90;;;;;;5017757;28;8809;-63
2022/03/09 13:00:10;;;;;;;;;67.80;53.40;29.50;99.90;;;;;;5017879;28;8904;-63
2022/03/09 13:02:37;;;;;;;;;69.80;55.80;29.50;99.90;;;;;;5016257;28;9480;-63
2022/03/09 13:05:05;;;;;;;;;68.40;55.00;29.50;99.90;;;;;;5017956;28;8817;-63